地図

経路データ

SID SEASON NUMBER BASIN SUBBASIN NAME ISO_TIME NATURE LAT LON WMO_WIND WMO_PRES WMO_AGENCY TRACK_TYPE DIST2LAND LANDFALL IFLAG USA_AGENCY USA_ATCF_ID USA_LAT USA_LON USA_RECORD USA_STATUS USA_WIND USA_PRES USA_SSHS USA_R34_NE USA_R34_SE USA_R34_SW USA_R34_NW USA_R50_NE USA_R50_SE USA_R50_SW USA_R50_NW USA_R64_NE USA_R64_SE USA_R64_SW USA_R64_NW USA_POCI USA_ROCI USA_RMW USA_EYE TOKYO_LAT TOKYO_LON TOKYO_GRADE TOKYO_WIND TOKYO_PRES TOKYO_R50_DIR TOKYO_R50_LONG TOKYO_R50_SHORT TOKYO_R30_DIR TOKYO_R30_LONG TOKYO_R30_SHORT TOKYO_LAND CMA_LAT CMA_LON CMA_CAT CMA_WIND CMA_PRES HKO_LAT HKO_LON HKO_CAT HKO_WIND HKO_PRES NEWDELHI_LAT NEWDELHI_LON NEWDELHI_GRADE NEWDELHI_WIND NEWDELHI_PRES NEWDELHI_CI NEWDELHI_DP NEWDELHI_POCI REUNION_LAT REUNION_LON REUNION_TYPE REUNION_WIND REUNION_PRES REUNION_TNUM REUNION_CI REUNION_RMW REUNION_R34_NE REUNION_R34_SE REUNION_R34_SW REUNION_R34_NW REUNION_R50_NE REUNION_R50_SE REUNION_R50_SW REUNION_R50_NW REUNION_R64_NE REUNION_R64_SE REUNION_R64_SW REUNION_R64_NW BOM_LAT BOM_LON BOM_TYPE BOM_WIND BOM_PRES BOM_TNUM BOM_CI BOM_RMW BOM_R34_NE BOM_R34_SE BOM_R34_SW BOM_R34_NW BOM_R50_NE BOM_R50_SE BOM_R50_SW BOM_R50_NW BOM_R64_NE BOM_R64_SE BOM_R64_SW BOM_R64_NW BOM_ROCI BOM_POCI BOM_EYE BOM_POS_METHOD BOM_PRES_METHOD NADI_LAT NADI_LON NADI_CAT NADI_WIND NADI_PRES WELLINGTON_LAT WELLINGTON_LON WELLINGTON_WIND WELLINGTON_PRES DS824_LAT DS824_LON DS824_STAGE DS824_WIND DS824_PRES TD9636_LAT TD9636_LON TD9636_STAGE TD9636_WIND TD9636_PRES TD9635_LAT TD9635_LON TD9635_WIND TD9635_PRES TD9635_ROCI NEUMANN_LAT NEUMANN_LON NEUMANN_CLASS NEUMANN_WIND NEUMANN_PRES MLC_LAT MLC_LON MLC_CLASS MLC_WIND MLC_PRES USA_GUST BOM_GUST BOM_GUST_PER REUNION_GUST REUNION_GUST_PER USA_SEAHGT USA_SEARAD_NE USA_SEARAD_SE USA_SEARAD_SW USA_SEARAD_NW STORM_SPEED STORM_DIR
1938235N12145 1938 40 WP MM NOT_NAMED 1938-08-23 10:00:00 NR 12.0000 145.100 main 1588 1588 __________O___ -1 12.0000 145.100 7 1 137
1938235N12145 1938 40 WP MM NOT_NAMED 1938-08-23 12:00:00 NR 11.9713 145.109 main 1588 1588 __________P___ -1 11.9713 145.109 7 0 204
1938235N12145 1938 40 WP MM NOT_NAMED 1938-08-23 15:00:00 NR 11.9640 145.087 main 1588 1588 __________P___ -1 11.9640 145.087 7 2 300
1938235N12145 1938 40 WP MM NOT_NAMED 1938-08-23 18:00:00 NR 12.0487 144.977 main 1589 1600 __________P___ -1 12.0487 144.977 7 5 312
1938235N12145 1938 40 WP MM NOT_NAMED 1938-08-23 21:00:00 NR 12.2805 144.725 main 1627 1627 __________P___ -1 12.2805 144.725 7 8 314
1938235N12145 1938 40 WP MM NOT_NAMED 1938-08-23 22:00:00 NR 12.4000 144.600 main 1639 1639 __________O___ -1 12.4000 144.600 7 12 315
1938235N12145 1938 40 WP MM NOT_NAMED 1938-08-24 00:00:00 NR 12.7077 144.282 main 1677 1677 __________P___ -1 12.7077 144.282 7 15 315
1938235N12145 1938 40 WP MM NOT_NAMED 1938-08-24 03:00:00 NR 13.3018 143.665 main 1754 1756 __________P___ -1 13.3018 143.665 7 18 314
1938235N12145 1938 40 WP MM NOT_NAMED 1938-08-24 06:00:00 NR 13.9851 142.937 main 1822 1822 __________P___ -1 13.9851 142.937 7 20 313
1938235N12145 1938 40 WP MM NOT_NAMED 1938-08-24 09:00:00 NR 14.6794 142.159 main 1825 1798 __________P___ -1 14.6794 142.159 7 20 312
1938235N12145 1938 40 WP MM NOT_NAMED 1938-08-24 10:00:00 NR 14.9000 141.900 main 1798 1752 __________O___ -1 14.9000 141.900 7 19 310
1938235N12145 1938 40 WP MM NOT_NAMED 1938-08-24 12:00:00 NR 15.2833 141.412 main 1752 1689 __________P___ -1 15.2833 141.412 7 18 308
1938235N12145 1938 40 WP MM NOT_NAMED 1938-08-24 15:00:00 NR 15.8334 140.668 main 1689 1621 __________P___ -1 15.8334 140.668 7 18 307
1938235N12145 1938 40 WP MM NOT_NAMED 1938-08-24 18:00:00 NR 16.3534 139.930 main 1621 1562 __________P___ -1 16.3534 139.930 7 17 306
1938235N12145 1938 40 WP MM NOT_NAMED 1938-08-24 21:00:00 NR 16.8433 139.224 main 1562 1548 __________P___ -1 16.8433 139.224 7 17 306
1938235N12145 1938 40 WP MM NOT_NAMED 1938-08-24 22:00:00 NR 17.0000 139.000 main 1548 1515 __________O___ -1 17.0000 139.000 7 15 306
1938235N12145 1938 40 WP MM NOT_NAMED 1938-08-25 00:00:00 NR 17.2948 138.581 main 1519 1477 __________P___ -1 17.2948 138.581 7 14 306
1938235N12145 1938 40 WP MM NOT_NAMED 1938-08-25 03:00:00 NR 17.7122 137.991 main 1477 1437 __________P___ -1 17.7122 137.991 7 14 307
1938235N12145 1938 40 WP MM NOT_NAMED 1938-08-25 06:00:00 NR 18.1221 137.432 main 1437 1410 __________P___ -1 18.1221 137.432 7 13 308
1938235N12145 1938 40 WP MM NOT_NAMED 1938-08-25 09:00:00 NR 18.5494 136.883 main 1410 1403 __________P___ -1 18.5494 136.883 7 14 310
1938235N12145 1938 40 WP MM NOT_NAMED 1938-08-25 10:00:00 NR 18.7000 136.700 main 1403 1384 __________O___ -1 18.7000 136.700 7 14 310
1938235N12145 1938 40 WP MM NOT_NAMED 1938-08-25 12:00:00 NR 19.0112 136.311 main 1384 1356 __________P___ -1 19.0112 136.311 7 15 311
1938235N12145 1938 40 WP MM NOT_NAMED 1938-08-25 15:00:00 NR 19.5031 135.727 main 1356 1305 __________P___ -1 19.5031 135.727 7 15 313
1938235N12145 1938 40 WP MM NOT_NAMED 1938-08-25 18:00:00 NR 20.0306 135.149 main 1305 1225 __________P___ -1 20.0306 135.149 7 15 316
1938235N12145 1938 40 WP MM NOT_NAMED 1938-08-25 21:00:00 NR 20.5999 134.584 main 1225 1197 __________P___ -1 20.5999 134.584 7 16 318
1938235N12145 1938 40 WP MM NOT_NAMED 1938-08-25 22:00:00 NR 20.8000 134.400 main 1197 1142 __________O___ -1 20.8000 134.400 7 16 319
1938235N12145 1938 40 WP MM NOT_NAMED 1938-08-26 00:00:00 NR 21.1945 134.027 main 1142 1064 __________P___ -1 21.1945 134.027 7 16 320
1938235N12145 1938 40 WP MM NOT_NAMED 1938-08-26 03:00:00 NR 21.8241 133.481 main 1064 976 __________P___ -1 21.8241 133.481 7 17 323
1938235N12145 1938 40 WP MM NOT_NAMED 1938-08-26 06:00:00 NR 22.5041 132.956 main 976 889 __________P___ -1 22.5041 132.956 7 17 326
1938235N12145 1938 40 WP MM NOT_NAMED 1938-08-26 09:00:00 NR 23.2408 132.458 main 889 852 __________P___ -1 23.2408 132.458 7 18 329
1938235N12145 1938 40 WP MM NOT_NAMED 1938-08-26 10:00:00 NR 23.5000 132.300 main 852 792 __________O___ -1 23.5000 132.300 2 18 332
1938235N12145 1938 40 WP MM NOT_NAMED 1938-08-26 12:00:00 NR 24.0393 131.995 main 792 686 __________P___ -1 24.0393 131.995 2 19 334
1938235N12145 1938 40 WP MM NOT_NAMED 1938-08-26 15:00:00 NR 24.8920 131.560 main 686 581 __________P___ -1 24.8920 131.560 2 19 336
1938235N12145 1938 40 WP MM NOT_NAMED 1938-08-26 18:00:00 NR 25.7826 131.144 main 581 480 __________P___ -1 25.7826 131.144 2 20 338
1938235N12145 1938 40 WP MM NOT_NAMED 1938-08-26 21:00:00 NR 26.6944 130.736 main 480 457 __________P___ -1 26.6944 130.736 2 20 338
1938235N12145 1938 40 WP MM NOT_NAMED 1938-08-26 22:00:00 NR 27.0000 130.600 main 446 __________O___ -1 27.0000 130.600 2 20 338

デジタル台風データ・検索

IBTrACS Databaseについて

本データベースは、米国NOAAが公開する1842年以降の世界の熱帯低気圧のベストトラックデータアーカイブInternational Best Track Archive for Climate Stewardship (IBTrACS)を、ウェブで閲覧しやすい形式に変換したものです。

最終更新日:2021-12-01